createdAt,value
2023-04-04T00:00:22.983Z,2.65
2023-04-04T00:05:26.491Z,2.92
2023-04-04T00:10:29.184Z,3.13
2023-04-04T00:15:31.908Z,3.22
2023-04-04T00:20:34.644Z,2.80
2023-04-04T00:25:38.174Z,3.63
2023-04-04T00:30:41.117Z,3.03
2023-04-04T00:35:44.146Z,3.00
2023-04-04T00:40:49.045Z,4.60
2023-04-04T00:45:52.675Z,3.20
2023-04-04T00:50:55.463Z,4.22
2023-04-04T00:55:58.304Z,6.93
2023-04-04T01:01:01.886Z,16.83
2023-04-04T01:06:04.777Z,10.15
2023-04-04T01:11:07.696Z,12.43
2023-04-04T01:16:10.725Z,15.75
2023-04-04T01:21:14.996Z,6.18
2023-04-04T01:26:18.020Z,5.63
2023-04-04T01:31:29.893Z,2.78
2023-04-04T01:36:59.515Z,2.70
2023-04-04T01:42:03.656Z,3.80
2023-04-04T01:47:10.189Z,4.55
2023-04-04T01:52:13.434Z,2.88
2023-04-04T01:57:16.374Z,2.88
2023-04-04T02:02:19.791Z,3.00
2023-04-04T02:07:22.452Z,3.35
2023-04-04T02:12:25.430Z,3.80
2023-04-04T02:17:28.835Z,3.65
2023-04-04T02:22:31.946Z,3.42
2023-04-04T02:27:34.981Z,3.70
2023-04-04T02:32:38.560Z,3.28
2023-04-04T02:37:46.511Z,3.05
2023-04-04T02:42:56.246Z,4.25
2023-04-04T02:47:59.175Z,3.60
2023-04-04T02:53:12.227Z,3.47
2023-04-04T02:58:15.165Z,3.40
2023-04-04T03:03:18.176Z,3.45
2023-04-04T03:08:22.938Z,3.70
2023-04-04T03:13:25.677Z,3.33
2023-04-04T03:18:28.597Z,3.00
2023-04-04T03:23:31.376Z,3.00
2023-04-04T03:28:34.209Z,3.30
2023-04-04T03:33:38.549Z,3.30
2023-04-04T03:38:41.968Z,4.70
2023-04-04T03:43:46.077Z,3.30
2023-04-04T03:48:48.871Z,3.95
2023-04-04T03:53:52.704Z,4.18
2023-04-04T03:58:56.863Z,3.22
2023-04-04T04:04:01.597Z,3.88
2023-04-04T04:09:04.477Z,3.97
2023-04-04T04:14:09.620Z,3.72
2023-04-04T04:19:13.219Z,5.45
2023-04-04T04:24:17.699Z,3.42
2023-04-04T04:29:20.489Z,3.63
2023-04-04T04:34:23.405Z,3.33
2023-04-04T04:39:27.628Z,3.28
2023-04-04T04:44:50.626Z,2.75
2023-04-04T04:49:54.081Z,3.28
2023-04-04T04:55:08.372Z,3.63
2023-04-04T05:00:15.385Z,2.75
2023-04-04T05:05:21.679Z,2.72
2023-04-04T05:10:25.113Z,2.90
2023-04-04T05:15:30.275Z,3.53
2023-04-04T05:20:33.788Z,2.83
2023-04-04T05:25:38.420Z,2.85
2023-04-04T05:30:42.246Z,3.50
2023-04-04T05:35:50.360Z,3.15
2023-04-04T05:40:54.879Z,2.85
2023-04-04T05:45:58.815Z,3.60
2023-04-04T05:51:03.469Z,2.80
2023-04-04T05:56:17.034Z,3.25
2023-04-04T06:01:20.606Z,3.20
2023-04-04T06:06:26.936Z,2.50
2023-04-04T06:11:30.324Z,3.40
2023-04-04T06:16:39.379Z,3.05
2023-04-04T06:21:42.114Z,3.63
2023-04-04T06:26:46.212Z,2.70
2023-04-04T06:31:50.159Z,2.92
2023-04-04T06:36:59.163Z,2.70
2023-04-04T06:42:06.600Z,3.28
2023-04-04T06:47:11.285Z,2.28
2023-04-04T06:52:14.188Z,3.05
2023-04-04T06:57:18.607Z,2.58
2023-04-04T07:02:22.239Z,1.88
2023-04-04T07:07:25.191Z,1.63
2023-04-04T07:12:27.919Z,2.00
2023-04-04T07:17:33.328Z,2.25
2023-04-04T07:22:40.260Z,1.80
2023-04-04T07:27:43.205Z,2.10
2023-04-04T07:32:46.365Z,3.00
2023-04-04T07:37:49.141Z,1.75
2023-04-04T07:42:52.167Z,1.95
2023-04-04T07:47:55.004Z,1.77
2023-04-04T07:52:59.046Z,2.30
2023-04-04T07:58:01.932Z,2.60
2023-04-04T08:03:04.761Z,2.28
2023-04-04T08:08:07.763Z,3.33
2023-04-04T08:13:10.448Z,2.55
2023-04-04T08:18:13.383Z,2.30
2023-04-04T08:23:16.145Z,2.58
2023-04-04T08:28:18.928Z,2.75
2023-04-04T08:33:31.617Z,2.72
2023-04-04T08:38:47.303Z,3.13
2023-04-04T08:43:54.905Z,2.40
2023-04-04T08:49:00.126Z,2.42
2023-04-04T08:54:03.428Z,1.45
2023-04-04T08:59:06.724Z,1.48
2023-04-04T09:04:09.971Z,2.60
2023-04-04T09:09:12.882Z,2.65
2023-04-04T09:14:15.817Z,2.40
2023-04-04T09:19:18.584Z,2.38
2023-04-04T09:24:21.506Z,2.42
2023-04-04T09:29:24.320Z,1.73
2023-04-04T09:34:29.427Z,1.35
2023-04-04T09:39:33.178Z,1.27
2023-04-04T09:44:37.262Z,1.77
2023-04-04T09:49:40.745Z,2.55
2023-04-04T09:54:48.362Z,1.17
2023-04-04T09:59:51.830Z,2.20
2023-04-04T10:05:05.132Z,1.45
2023-04-04T10:10:09.616Z,1.07
2023-04-04T10:15:12.504Z,0.85
2023-04-04T10:20:15.540Z,0.95
2023-04-04T10:25:18.606Z,1.33
2023-04-04T10:30:21.598Z,0.63
2023-04-04T10:35:25.182Z,0.98
2023-04-04T10:40:33.633Z,1.50
2023-04-04T10:45:40.496Z,3.10
2023-04-04T10:50:43.678Z,1.80
2023-04-04T10:55:47.050Z,4.40
2023-04-04T11:00:55.571Z,3.95
2023-04-04T11:06:02.228Z,5.35
2023-04-04T11:11:09.737Z,6.22
2023-04-04T11:16:21.541Z,4.93
2023-04-04T11:21:25.373Z,4.10
2023-04-04T11:26:31.081Z,5.05
2023-04-04T11:31:36.112Z,4.30
2023-04-04T11:36:39.283Z,5.72
2023-04-04T11:41:57.676Z,5.63
2023-04-04T11:47:06.382Z,6.75
2023-04-04T11:52:11.376Z,8.35
2023-04-04T11:57:19.214Z,9.43
2023-04-04T12:02:32.274Z,4.28
2023-04-04T12:07:35.669Z,2.70
2023-04-04T12:12:39.894Z,3.97
2023-04-04T12:17:44.515Z,3.93
2023-04-04T12:22:50.497Z,3.87
2023-04-04T12:27:54.423Z,4.97
2023-04-04T12:32:57.725Z,4.07
2023-04-04T12:38:14.169Z,4.38
2023-04-04T12:43:18.102Z,5.75
2023-04-04T12:48:28.066Z,6.93
2023-04-04T12:53:33.318Z,1.83
2023-04-04T13:03:41.078Z,4.35
2023-04-04T13:08:52.422Z,5.85
2023-04-04T13:14:04.857Z,7.03
2023-04-04T13:19:07.703Z,2.00
2023-04-04T13:24:10.447Z,3.17
2023-04-04T13:29:13.154Z,1.70
2023-04-04T13:34:15.980Z,0.77
2023-04-04T13:39:18.879Z,1.65
2023-04-04T13:44:21.590Z,1.45
2023-04-04T13:49:24.329Z,2.38
2023-04-04T13:54:27.089Z,2.83
2023-04-04T13:59:29.908Z,0.73
2023-04-04T14:04:32.729Z,0.98
2023-04-04T14:09:35.635Z,2.40
2023-04-04T14:14:38.411Z,1.27
2023-04-04T14:19:42.740Z,1.38
2023-04-04T14:24:45.431Z,1.60
2023-04-04T14:29:48.607Z,1.48
2023-04-04T14:34:51.411Z,2.55
2023-04-04T14:39:54.209Z,2.33
2023-04-04T14:44:57.059Z,2.92
2023-04-04T14:50:01.180Z,4.90
2023-04-04T14:55:06.445Z,4.70
2023-04-04T15:00:10.803Z,3.75
2023-04-04T15:05:15.151Z,4.45
2023-04-04T15:10:17.942Z,4.55
2023-04-04T15:15:23.126Z,4.00
2023-04-04T15:20:26.464Z,2.33
2023-04-04T15:25:30.190Z,2.40
2023-04-04T15:30:33.717Z,2.90
2023-04-04T15:35:36.657Z,2.78
2023-04-04T15:40:39.782Z,2.50
2023-04-04T15:45:42.970Z,2.47
2023-04-04T15:50:45.785Z,2.65
2023-04-04T15:55:48.526Z,3.38
2023-04-04T16:00:51.457Z,2.70
2023-04-04T16:05:54.377Z,2.60
2023-04-04T16:10:58.538Z,4.78
2023-04-04T16:16:01.306Z,1.90
2023-04-04T16:21:05.000Z,3.60
2023-04-04T16:26:07.739Z,3.80
2023-04-04T16:31:10.473Z,3.47
2023-04-04T16:36:13.524Z,3.80
2023-04-04T16:41:17.006Z,4.20
2023-04-04T16:46:20.022Z,3.53
2023-04-04T16:51:23.034Z,4.40
2023-04-04T16:56:25.933Z,4.28
2023-04-04T17:01:28.675Z,5.85
2023-04-04T17:06:31.692Z,2.83
2023-04-04T17:11:45.048Z,2.63
2023-04-04T17:16:48.501Z,4.90
2023-04-04T17:21:51.595Z,4.80
2023-04-04T17:26:56.430Z,4.93
2023-04-04T17:32:00.053Z,4.50
2023-04-04T17:37:03.144Z,4.38
2023-04-04T17:42:06.387Z,4.85
2023-04-04T17:47:09.237Z,4.40
2023-04-04T17:52:14.583Z,2.53
2023-04-04T17:57:17.924Z,2.80
2023-04-04T18:02:21.029Z,4.38
2023-04-04T18:07:23.688Z,3.22
2023-04-04T18:12:30.452Z,3.17
2023-04-04T18:17:33.765Z,1.33
2023-04-04T18:22:36.803Z,3.78
2023-04-04T18:27:39.592Z,3.65
2023-04-04T18:32:42.839Z,3.25
2023-04-04T18:37:45.573Z,2.90
2023-04-04T18:42:48.510Z,4.25
2023-04-04T18:47:51.564Z,4.15
2023-04-04T18:52:54.297Z,3.58
2023-04-04T18:57:57.837Z,3.28
2023-04-04T19:03:01.002Z,3.40
2023-04-04T19:08:06.857Z,2.38
2023-04-04T19:13:09.531Z,2.72
2023-04-04T19:18:12.586Z,2.60
2023-04-04T19:23:15.329Z,2.38
2023-04-04T19:28:18.260Z,2.90
2023-04-04T19:33:24.954Z,2.90
2023-04-04T19:38:33.626Z,2.85
2023-04-04T19:43:36.690Z,2.63
2023-04-04T19:48:50.901Z,2.55
2023-04-04T19:53:56.302Z,2.60
2023-04-04T19:59:06.286Z,2.00
2023-04-04T20:04:11.291Z,2.70
2023-04-04T20:09:33.114Z,1.70
2023-04-04T20:14:35.939Z,2.00
2023-04-04T20:19:38.733Z,1.90
2023-04-04T20:24:42.723Z,2.50
2023-04-04T20:29:45.461Z,2.20
2023-04-04T20:34:50.803Z,1.70
2023-04-04T20:40:09.213Z,3.00
2023-04-04T20:45:11.982Z,2.10
2023-04-04T20:50:17.427Z,2.45
2023-04-04T20:55:21.365Z,1.55
2023-04-04T21:00:39.834Z,1.75
2023-04-04T21:05:43.050Z,1.33
2023-04-04T21:10:52.164Z,1.58
2023-04-04T21:16:02.791Z,1.52
2023-04-04T21:21:10.284Z,1.77
2023-04-04T21:26:29.986Z,1.83
2023-04-04T21:31:39.969Z,1.23
2023-04-04T21:36:43.850Z,1.63
2023-04-04T21:41:47.550Z,1.23
2023-04-04T21:46:50.485Z,1.60
2023-04-04T21:51:53.273Z,1.70
2023-04-04T21:56:56.338Z,1.30
2023-04-04T22:01:59.138Z,1.70
2023-04-04T22:07:01.937Z,1.55
2023-04-04T22:12:05.586Z,1.40
2023-04-04T22:17:08.342Z,1.90
2023-04-04T22:22:11.449Z,1.50
2023-04-04T22:27:15.010Z,1.65
2023-04-04T22:32:17.917Z,1.73
2023-04-04T22:37:21.963Z,2.05
2023-04-04T22:42:24.637Z,1.85
2023-04-04T22:47:27.319Z,2.50
2023-04-04T22:52:31.041Z,2.80
2023-04-04T22:57:33.736Z,2.13
2023-04-04T23:02:37.129Z,2.67
2023-04-04T23:07:40.382Z,3.00
2023-04-04T23:12:43.280Z,2.55
2023-04-04T23:17:46.913Z,4.35
2023-04-04T23:22:49.644Z,3.83
2023-04-04T23:27:52.558Z,3.63
2023-04-04T23:32:55.563Z,3.40
2023-04-04T23:37:58.375Z,4.13
2023-04-04T23:43:01.224Z,2.72
2023-04-04T23:48:04.092Z,2.30
2023-04-04T23:53:06.995Z,2.55
2023-04-04T23:58:09.691Z,2.47
